Terminal Aerodrome Forecast
Issued by NWS Sterling, VA

Home | Current Version | Previous Version | Text Only | Print | Product List | Glossary On
Versions: 1 2 3 4 5 6 7 8 9 10 11 12
000
FTUS41 KLWX 260535
TAFMRB
TAF
KMRB 260535Z 2606/2706 30012G22KT P6SM OVC040
     FM260900 28011G20KT P6SM BKN050
     FM261900 28011G18KT P6SM SCT050
     FM262200 26007KT P6SM FEW050
     FM270000 25005KT P6SM FEW250=

USA.gov is the U.S. government's official web portal to all federal, state and local government web resources and services.